sensor_id;sensor_type;location;lat;lon;timestamp;pressure;altitude;pressure_sealevel;temperature;humidity
15634;BME280;14654;48.898;8.308;2023-01-19T00:01:45;99309.63;;;-1.43;100.00
15634;BME280;14654;48.898;8.308;2023-01-19T00:04:10;99305.53;;;-1.38;100.00
15634;BME280;14654;48.898;8.308;2023-01-19T00:06:36;99314.19;;;-1.30;100.00
15634;BME280;14654;48.898;8.308;2023-01-19T00:09:02;99305.84;;;-1.24;100.00
15634;BME280;14654;48.898;8.308;2023-01-19T00:11:27;99304.31;;;-1.17;100.00
15634;BME280;14654;48.898;8.308;2023-01-19T00:13:52;99305.25;;;-1.12;100.00
15634;BME280;14654;48.898;8.308;2023-01-19T00:16:19;99311.31;;;-1.07;100.00
15634;BME280;14654;48.898;8.308;2023-01-19T00:18:47;99305.47;;;-1.03;100.00
15634;BME280;14654;48.898;8.308;2023-01-19T00:21:14;99300.47;;;-1.00;100.00
15634;BME280;14654;48.898;8.308;2023-01-19T00:23:40;99297.16;;;-0.96;100.00
15634;BME280;14654;48.898;8.308;2023-01-19T00:26:05;99306.53;;;-0.93;100.00
15634;BME280;14654;48.898;8.308;2023-01-19T00:28:30;99304.91;;;-0.91;100.00
15634;BME280;14654;48.898;8.308;2023-01-19T00:30:56;99311.72;;;-0.88;100.00
15634;BME280;14654;48.898;8.308;2023-01-19T00:33:21;99317.72;;;-0.85;100.00
15634;BME280;14654;48.898;8.308;2023-01-19T00:35:51;99313.50;;;-0.84;100.00
15634;BME280;14654;48.898;8.308;2023-01-19T00:38:17;99311.81;;;-0.84;100.00
15634;BME280;14654;48.898;8.308;2023-01-19T00:40:42;99316.88;;;-0.84;100.00
15634;BME280;14654;48.898;8.308;2023-01-19T00:43:07;99323.66;;;-0.84;100.00
15634;BME280;14654;48.898;8.308;2023-01-19T00:45:33;99316.03;;;-0.84;100.00
15634;BME280;14654;48.898;8.308;2023-01-19T00:47:58;99321.13;;;-0.84;100.00
15634;BME280;14654;48.898;8.308;2023-01-19T00:50:25;99327.06;;;-0.84;100.00
15634;BME280;14654;48.898;8.308;2023-01-19T00:52:52;99321.13;;;-0.84;100.00
15634;BME280;14654;48.898;8.308;2023-01-19T00:55:18;99331.28;;;-0.84;100.00
15634;BME280;14654;48.898;8.308;2023-01-19T00:57:43;99336.38;;;-0.83;100.00
15634;BME280;14654;48.898;8.308;2023-01-19T01:00:11;99337.28;;;-0.81;100.00
15634;BME280;14654;48.898;8.308;2023-01-19T01:02:38;99339.91;;;-0.78;100.00
15634;BME280;14654;48.898;8.308;2023-01-19T01:05:04;99340.81;;;-0.74;100.00
15634;BME280;14654;48.898;8.308;2023-01-19T01:07:31;99337.53;;;-0.70;100.00
15634;BME280;14654;48.898;8.308;2023-01-19T01:09:59;99346.97;;;-0.64;100.00
15634;BME280;14654;48.898;8.308;2023-01-19T01:12:25;99339.34;;;-0.63;100.00
15634;BME280;14654;48.898;8.308;2023-01-19T01:14:50;99346.25;;;-0.57;100.00
15634;BME280;14654;48.898;8.308;2023-01-19T01:17:15;99344.59;;;-0.55;100.00
15634;BME280;14654;48.898;8.308;2023-01-19T01:19:41;99339.59;;;-0.52;100.00
15634;BME280;14654;48.898;8.308;2023-01-19T01:22:08;99341.31;;;-0.51;100.00
15634;BME280;14654;48.898;8.308;2023-01-19T01:24:34;99345.63;;;-0.47;100.00
15634;BME280;14654;48.898;8.308;2023-01-19T01:26:59;99347.28;;;-0.47;100.00
15634;BME280;14654;48.898;8.308;2023-01-19T01:29:24;99355.81;;;-0.45;100.00
15634;BME280;14654;48.898;8.308;2023-01-19T01:31:50;99343.09;;;-0.45;100.00
15634;BME280;14654;48.898;8.308;2023-01-19T01:34:16;99348.13;;;-0.48;100.00
15634;BME280;14654;48.898;8.308;2023-01-19T01:36:41;99354.81;;;-0.53;100.00
15634;BME280;14654;48.898;8.308;2023-01-19T01:39:07;99353.03;;;-0.56;100.00
15634;BME280;14654;48.898;8.308;2023-01-19T01:41:32;99355.59;;;-0.56;100.00
15634;BME280;14654;48.898;8.308;2023-01-19T01:43:58;99353.13;;;-0.51;100.00
15634;BME280;14654;48.898;8.308;2023-01-19T01:46:27;99354.91;;;-0.47;100.00
15634;BME280;14654;48.898;8.308;2023-01-19T01:49:01;99352.47;;;-0.42;100.00
15634;BME280;14654;48.898;8.308;2023-01-19T01:54:11;99358.59;;;-0.34;100.00
15634;BME280;14654;48.898;8.308;2023-01-19T01:56:44;99360.31;;;-0.33;100.00
15634;BME280;14654;48.898;8.308;2023-01-19T01:59:14;99354.41;;;-0.32;100.00
15634;BME280;14654;48.898;8.308;2023-01-19T02:01:55;99356.94;;;-0.32;100.00
15634;BME280;14654;48.898;8.308;2023-01-19T02:04:43;99351.84;;;-0.32;100.00
15634;BME280;14654;48.898;8.308;2023-01-19T02:07:14;99358.66;;;-0.31;100.00
15634;BME280;14654;48.898;8.308;2023-01-19T02:10:00;99353.56;;;-0.31;100.00
15634;BME280;14654;48.898;8.308;2023-01-19T02:12:44;99354.44;;;-0.29;100.00
15634;BME280;14654;48.898;8.308;2023-01-19T02:15:28;99357.03;;;-0.26;100.00
15634;BME280;14654;48.898;8.308;2023-01-19T02:17:53;99356.25;;;-0.23;100.00
15634;BME280;14654;48.898;8.308;2023-01-19T02:20:20;99361.38;;;-0.20;100.00
15634;BME280;14654;48.898;8.308;2023-01-19T02:22:49;99362.28;;;-0.18;100.00
15634;BME280;14654;48.898;8.308;2023-01-19T02:25:17;99364.03;;;-0.16;100.00
15634;BME280;14654;48.898;8.308;2023-01-19T02:27:43;99355.53;;;-0.16;100.00
15634;BME280;14654;48.898;8.308;2023-01-19T02:30:10;99355.53;;;-0.16;100.00
15634;BME280;14654;48.898;8.308;2023-01-19T02:32:35;99358.97;;;-0.16;100.00
15634;BME280;14654;48.898;8.308;2023-01-19T02:35:01;99358.97;;;-0.16;100.00
15634;BME280;14654;48.898;8.308;2023-01-19T02:37:28;99354.72;;;-0.15;100.00
15634;BME280;14654;48.898;8.308;2023-01-19T02:40:00;99353.88;;;-0.16;100.00
15634;BME280;14654;48.898;8.308;2023-01-19T02:42:28;99352.16;;;-0.15;100.00
15634;BME280;14654;48.898;8.308;2023-01-19T02:44:56;99358.09;;;-0.16;100.00
15634;BME280;14654;48.898;8.308;2023-01-19T02:47:22;99356.41;;;-0.16;100.00
15634;BME280;14654;48.898;8.308;2023-01-19T02:49:55;99360.63;;;-0.16;100.00
15634;BME280;14654;48.898;8.308;2023-01-19T02:52:21;99366.59;;;-0.16;100.00
15634;BME280;14654;48.898;8.308;2023-01-19T02:57:44;99355.56;;;-0.14;100.00
15634;BME280;14654;48.898;8.308;2023-01-19T03:00:36;99364.97;;;-0.10;100.00
15634;BME280;14654;48.898;8.308;2023-01-19T03:06:20;99357.41;;;-0.07;100.00
15634;BME280;14654;48.898;8.308;2023-01-19T03:08:49;99354.03;;;-0.08;100.00
15634;BME280;14654;48.898;8.308;2023-01-19T03:11:17;99348.88;;;-0.11;100.00
15634;BME280;14654;48.898;8.308;2023-01-19T03:13:52;99351.41;;;-0.11;100.00
15634;BME280;14654;48.898;8.308;2023-01-19T03:16:27;99353.94;;;-0.11;100.00
15634;BME280;14654;48.898;8.308;2023-01-19T03:18:57;99353.94;;;-0.11;100.00
15634;BME280;14654;48.898;8.308;2023-01-19T03:21:26;99358.16;;;-0.13;100.00
15634;BME280;14654;48.898;8.308;2023-01-19T03:23:53;99351.34;;;-0.14;100.00
15634;BME280;14654;48.898;8.308;2023-01-19T03:26:24;99358.97;;;-0.14;100.00
15634;BME280;14654;48.898;8.308;2023-01-19T03:28:51;99358.97;;;-0.14;100.00
15634;BME280;14654;48.898;8.308;2023-01-19T03:31:21;99348.81;;;-0.12;100.00
15634;BME280;14654;48.898;8.308;2023-01-19T03:33:50;99362.34;;;-0.13;100.00
15634;BME280;14654;48.898;8.308;2023-01-19T03:36:26;99356.38;;;-0.17;100.00
15634;BME280;14654;48.898;8.308;2023-01-19T03:38:55;99357.09;;;-0.24;100.00
15634;BME280;14654;48.898;8.308;2023-01-19T03:41:23;99357.88;;;-0.27;100.00
15634;BME280;14654;48.898;8.308;2023-01-19T03:43:50;99354.44;;;-0.29;100.00
15634;BME280;14654;48.898;8.308;2023-01-19T03:46:18;99352.72;;;-0.30;100.00
15634;BME280;14654;48.898;8.308;2023-01-19T03:48:44;99362.06;;;-0.29;100.00
15634;BME280;14654;48.898;8.308;2023-01-19T03:51:10;99366.31;;;-0.28;100.00
15634;BME280;14654;48.898;8.308;2023-01-19T03:53:37;99362.94;;;-0.27;100.00
15634;BME280;14654;48.898;8.308;2023-01-19T03:56:02;99370.56;;;-0.27;100.00
15634;BME280;14654;48.898;8.308;2023-01-19T03:58:28;99369.69;;;-0.29;100.00
15634;BME280;14654;48.898;8.308;2023-01-19T04:00:53;99367.09;;;-0.32;100.00
15634;BME280;14654;48.898;8.308;2023-01-19T04:03:19;99368.69;;;-0.37;100.00
15634;BME280;14654;48.898;8.308;2023-01-19T04:05:44;99365.97;;;-0.47;100.00
15634;BME280;14654;48.898;8.308;2023-01-19T04:08:10;99370.81;;;-0.57;100.00
15634;BME280;14654;48.898;8.308;2023-01-19T04:10:36;99369.72;;;-0.69;100.00
15634;BME280;14654;48.898;8.308;2023-01-19T04:13:02;99362.69;;;-0.81;100.00
15634;BME280;14654;48.898;8.308;2023-01-19T04:15:28;99372.59;;;-0.92;100.00
15634;BME280;14654;48.898;8.308;2023-01-19T04:17:56;99369.03;;;-1.00;100.00
15634;BME280;14654;48.898;8.308;2023-01-19T04:20:21;99367.16;;;-1.09;100.00
15634;BME280;14654;48.898;8.308;2023-01-19T04:22:47;99374.59;;;-1.16;100.00
15634;BME280;14654;48.898;8.308;2023-01-19T04:25:14;99375.22;;;-1.25;100.00
15634;BME280;14654;48.898;8.308;2023-01-19T04:27:39;99382.66;;;-1.33;100.00
15634;BME280;14654;48.898;8.308;2023-01-19T04:30:05;99388.38;;;-1.40;100.00
15634;BME280;14654;48.898;8.308;2023-01-19T04:32:31;99384.91;;;-1.44;100.00
15634;BME280;14654;48.898;8.308;2023-01-19T04:34:57;99392.44;;;-1.47;100.00
15634;BME280;14654;48.898;8.308;2023-01-19T04:37:22;99388.97;;;-1.52;100.00
15634;BME280;14654;48.898;8.308;2023-01-19T04:39:48;99390.53;;;-1.56;100.00
15634;BME280;14654;48.898;8.308;2023-01-19T04:42:13;99384.50;;;-1.61;100.00
15634;BME280;14654;48.898;8.308;2023-01-19T04:44:39;99387.75;;;-1.66;100.00
15634;BME280;14654;48.898;8.308;2023-01-19T04:47:04;99396.03;;;-1.72;100.00
15634;BME280;14654;48.898;8.308;2023-01-19T04:49:29;99400.97;;;-1.78;100.00
15634;BME280;14654;48.898;8.308;2023-01-19T04:51:55;99396.63;;;-1.82;100.00
15634;BME280;14654;48.898;8.308;2023-01-19T04:54:20;99405.75;;;-1.88;100.00
15634;BME280;14654;48.898;8.308;2023-01-19T04:56:46;99405.72;;;-1.91;100.00
15634;BME280;14654;48.898;8.308;2023-01-19T04:59:12;99408.16;;;-1.94;100.00
15634;BME280;14654;48.898;8.308;2023-01-19T05:01:37;99405.53;;;-1.97;100.00
15634;BME280;14654;48.898;8.308;2023-01-19T05:04:02;99406.44;;;-1.95;100.00
15634;BME280;14654;48.898;8.308;2023-01-19T05:06:30;99414.28;;;-1.86;100.00
15634;BME280;14654;48.898;8.308;2023-01-19T05:08:56;99418.03;;;-1.73;100.00
15634;BME280;14654;48.898;8.308;2023-01-19T05:11:21;99411.53;;;-1.61;100.00
15634;BME280;14654;48.898;8.308;2023-01-19T05:13:46;99416.16;;;-1.46;100.00
15634;BME280;14654;48.898;8.308;2023-01-19T05:16:12;99419.09;;;-1.31;100.00
15634;BME280;14654;48.898;8.308;2023-01-19T05:18:38;99419.41;;;-1.18;100.00
15634;BME280;14654;48.898;8.308;2023-01-19T05:21:04;99418.78;;;-1.08;100.00
15634;BME280;14654;48.898;8.308;2023-01-19T05:23:29;99418.16;;;-0.99;100.00
15634;BME280;14654;48.898;8.308;2023-01-19T05:25:57;99417.50;;;-0.90;100.00
15634;BME280;14654;48.898;8.308;2023-01-19T05:28:25;99414.22;;;-0.86;100.00
15634;BME280;14654;48.898;8.308;2023-01-19T05:30:50;99419.44;;;-0.80;100.00
15634;BME280;14654;48.898;8.308;2023-01-19T05:33:16;99412.75;;;-0.77;100.00
15634;BME280;14654;48.898;8.308;2023-01-19T05:35:41;99421.41;;;-0.67;100.00
15634;BME280;14654;48.898;8.308;2023-01-19T05:38:06;99421.56;;;-0.62;100.00
15634;BME280;14654;48.898;8.308;2023-01-19T05:40:32;99415.75;;;-0.56;100.00
15634;BME280;14654;48.898;8.308;2023-01-19T05:42:57;99420.91;;;-0.53;100.00
15634;BME280;14654;48.898;8.308;2023-01-19T05:45:26;99425.19;;;-0.49;100.00
15634;BME280;14654;48.898;8.308;2023-01-19T05:47:55;99422.75;;;-0.44;100.00
15634;BME280;14654;48.898;8.308;2023-01-19T05:50:20;99423.69;;;-0.41;100.00
15634;BME280;14654;48.898;8.308;2023-01-19T05:52:46;99424.63;;;-0.37;100.00
15634;BME280;14654;48.898;8.308;2023-01-19T05:55:11;99428.06;;;-0.34;100.00
15634;BME280;14654;48.898;8.308;2023-01-19T05:57:36;99426.41;;;-0.33;100.00
15634;BME280;14654;48.898;8.308;2023-01-19T06:00:05;99418.78;;;-0.33;100.00
15634;BME280;14654;48.898;8.308;2023-01-19T06:02:30;99417.06;;;-0.33;100.00
15634;BME280;14654;48.898;8.308;2023-01-19T06:04:55;99424.75;;;-0.31;100.00
15634;BME280;14654;48.898;8.308;2023-01-19T06:07:21;99425.59;;;-0.31;100.00
15634;BME280;14654;48.898;8.308;2023-01-19T06:09:47;99434.88;;;-0.33;100.00
15634;BME280;14654;48.898;8.308;2023-01-19T06:12:12;99435.69;;;-0.35;100.00
15634;BME280;14654;48.898;8.308;2023-01-19T06:14:38;99436.53;;;-0.35;100.00
15634;BME280;14654;48.898;8.308;2023-01-19T06:17:04;99434.84;;;-0.34;100.00
15634;BME280;14654;48.898;8.308;2023-01-19T06:19:31;99439.13;;;-0.32;100.00
15634;BME280;14654;48.898;8.308;2023-01-19T06:21:56;99447.69;;;-0.28;100.00
15634;BME280;14654;48.898;8.308;2023-01-19T06:24:22;99444.38;;;-0.24;100.00
15634;BME280;14654;48.898;8.308;2023-01-19T06:26:48;99449.63;;;-0.18;100.00
15634;BME280;14654;48.898;8.308;2023-01-19T06:29:13;99448.00;;;-0.12;100.00
15634;BME280;14654;48.898;8.308;2023-01-19T06:31:39;99448.97;;;-0.07;100.00
15634;BME280;14654;48.898;8.308;2023-01-19T06:34:05;99449.06;;;-0.03;100.00
15634;BME280;14654;48.898;8.308;2023-01-19T06:36:30;99457.59;;;0.01;100.00
15634;BME280;14654;48.898;8.308;2023-01-19T06:38:55;99451.75;;;0.05;100.00
15634;BME280;14654;48.898;8.308;2023-01-19T06:41:21;99460.28;;;0.07;100.00
15634;BME280;14654;48.898;8.308;2023-01-19T06:43:46;99457.81;;;0.12;100.00
15634;BME280;14654;48.898;8.308;2023-01-19T06:46:11;99456.19;;;0.14;100.00
15634;BME280;14654;48.898;8.308;2023-01-19T06:48:38;99463.03;;;0.18;100.00
15634;BME280;14654;48.898;8.308;2023-01-19T06:51:03;99448.69;;;0.22;100.00
15634;BME280;14654;48.898;8.308;2023-01-19T06:53:30;99451.25;;;0.23;100.00
15634;BME280;14654;48.898;8.308;2023-01-19T06:56:02;99453.03;;;0.26;100.00
15634;BME280;14654;48.898;8.308;2023-01-19T06:58:28;99452.22;;;0.28;100.00
15634;BME280;14654;48.898;8.308;2023-01-19T07:00:53;99459.03;;;0.29;100.00
15634;BME280;14654;48.898;8.308;2023-01-19T07:03:20;99466.66;;;0.29;100.00
15634;BME280;14654;48.898;8.308;2023-01-19T07:05:49;99456.50;;;0.31;100.00
15634;BME280;14654;48.898;8.308;2023-01-19T07:08:14;99465.91;;;0.34;100.00
15634;BME280;14654;48.898;8.308;2023-01-19T07:10:40;99468.44;;;0.34;100.00
15634;BME280;14654;48.898;8.308;2023-01-19T07:13:05;99469.31;;;0.36;100.00
15634;BME280;14654;48.898;8.308;2023-01-19T07:15:30;99468.50;;;0.37;100.00
15634;BME280;14654;48.898;8.308;2023-01-19T07:17:58;99472.78;;;0.38;100.00
15634;BME280;14654;48.898;8.308;2023-01-19T07:20:24;99471.06;;;0.38;100.00
15634;BME280;14654;48.898;8.308;2023-01-19T07:22:55;99477.88;;;0.41;100.00
15634;BME280;14654;48.898;8.308;2023-01-19T07:25:21;99483.03;;;0.42;100.00
15634;BME280;14654;48.898;8.308;2023-01-19T07:27:46;99484.75;;;0.45;100.00
15634;BME280;14654;48.898;8.308;2023-01-19T07:30:12;99487.31;;;0.47;100.00
15634;BME280;14654;48.898;8.308;2023-01-19T07:32:40;99484.03;;;0.51;100.00
15634;BME280;14654;48.898;8.308;2023-01-19T07:35:09;99480.66;;;0.53;100.00
15634;BME280;14654;48.898;8.308;2023-01-19T07:37:36;99475.56;;;0.53;100.00
15634;BME280;14654;48.898;8.308;2023-01-19T07:40:01;99479.84;;;0.54;100.00
15634;BME280;14654;48.898;8.308;2023-01-19T07:42:27;99485.00;;;0.57;100.00
15634;BME280;14654;48.898;8.308;2023-01-19T07:44:52;99491.06;;;0.64;100.00
15634;BME280;14654;48.898;8.308;2023-01-19T07:47:17;99483.50;;;0.69;100.00
15634;BME280;14654;48.898;8.308;2023-01-19T07:49:43;99488.72;;;0.75;100.00
15634;BME280;14654;48.898;8.308;2023-01-19T07:52:08;99483.69;;;0.80;100.00
15634;BME280;14654;48.898;8.308;2023-01-19T07:54:34;99498.31;;;0.90;100.00
15634;BME280;14654;48.898;8.308;2023-01-19T07:56:59;99499.28;;;0.97;100.00
15634;BME280;14654;48.898;8.308;2023-01-19T07:59:26;99498.47;;;0.99;100.00
15634;BME280;14654;48.898;8.308;2023-01-19T08:01:51;99497.69;;;1.03;100.00
15634;BME280;14654;48.898;8.308;2023-01-19T08:04:18;99501.97;;;1.06;100.00
15634;BME280;14654;48.898;8.308;2023-01-19T08:06:44;99501.16;;;1.09;100.00
15634;BME280;14654;48.898;8.308;2023-01-19T08:09:10;99501.28;;;1.13;100.00
15634;BME280;14654;48.898;8.308;2023-01-19T08:11:36;99505.56;;;1.17;100.00
15634;BME280;14654;48.898;8.308;2023-01-19T08:14:02;99511.59;;;1.21;100.00
15634;BME280;14654;48.898;8.308;2023-01-19T08:16:27;99515.03;;;1.25;100.00
15634;BME280;14654;48.898;8.308;2023-01-19T08:18:53;99509.13;;;1.27;100.00
15634;BME280;14654;48.898;8.308;2023-01-19T08:21:18;99516.00;;;1.31;100.00
15634;BME280;14654;48.898;8.308;2023-01-19T08:23:50;99510.94;;;1.34;100.00
15634;BME280;14654;48.898;8.308;2023-01-19T08:26:21;99517.78;;;1.37;100.00
15634;BME280;14654;48.898;8.308;2023-01-19T08:28:51;99522.06;;;1.38;100.00
15634;BME280;14654;48.898;8.308;2023-01-19T08:31:17;99523.81;;;1.42;100.00
15634;BME280;14654;48.898;8.308;2023-01-19T08:33:42;99522.16;;;1.46;100.00
15634;BME280;14654;48.898;8.308;2023-01-19T08:36:08;99525.66;;;1.51;100.00
15634;BME280;14654;48.898;8.308;2023-01-19T08:38:33;99524.91;;;1.57;100.00
15634;BME280;14654;48.898;8.308;2023-01-19T08:40:58;99526.63;;;1.61;100.00
15634;BME280;14654;48.898;8.308;2023-01-19T08:43:24;99530.97;;;1.66;100.00
15634;BME280;14654;48.898;8.308;2023-01-19T08:45:51;99530.16;;;1.69;100.00
15634;BME280;14654;48.898;8.308;2023-01-19T08:48:19;99531.06;;;1.71;100.00
15634;BME280;14654;48.898;8.308;2023-01-19T08:50:46;99540.50;;;1.77;100.00
15634;BME280;14654;48.898;8.308;2023-01-19T08:53:12;99532.00;;;1.79;100.00
15634;BME280;14654;48.898;8.308;2023-01-19T08:55:38;99537.16;;;1.81;100.00
15634;BME280;14654;48.898;8.308;2023-01-19T08:58:04;99538.00;;;1.80;100.00
15634;BME280;14654;48.898;8.308;2023-01-19T09:00:31;99532.91;;;1.83;100.00
15634;BME280;14654;48.898;8.308;2023-01-19T09:02:57;99538.94;;;1.90;100.00
15634;BME280;14654;48.898;8.308;2023-01-19T09:05:23;99533.84;;;1.88;100.00
15634;BME280;14654;48.898;8.308;2023-01-19T09:07:48;99538.06;;;1.86;100.00
15634;BME280;14654;48.898;8.308;2023-01-19T09:10:16;99538.00;;;1.83;100.00
15634;BME280;14654;48.898;8.308;2023-01-19T09:12:42;99542.31;;;1.86;100.00
15634;BME280;14654;48.898;8.308;2023-01-19T09:15:09;99543.22;;;1.88;100.00
15634;BME280;14654;48.898;8.308;2023-01-19T09:17:38;99540.66;;;1.91;100.00
15634;BME280;14654;48.898;8.308;2023-01-19T09:20:04;99540.72;;;1.94;100.00
15634;BME280;14654;48.898;8.308;2023-01-19T09:22:30;99541.69;;;2.02;100.00
15634;BME280;14654;48.898;8.308;2023-01-19T09:24:55;99541.78;;;2.08;100.00
15634;BME280;14654;48.898;8.308;2023-01-19T09:27:20;99544.38;;;2.13;100.00
15634;BME280;14654;48.898;8.308;2023-01-19T09:29:46;99538.41;;;2.11;100.00
15634;BME280;14654;48.898;8.308;2023-01-19T09:32:17;99534.91;;;2.04;100.00
15634;BME280;14654;48.898;8.308;2023-01-19T09:34:43;99539.94;;;2.00;100.00
15634;BME280;14654;48.898;8.308;2023-01-19T09:37:08;99539.16;;;2.05;100.00
15634;BME280;14654;48.898;8.308;2023-01-19T09:39:34;99543.66;;;2.22;100.00
15634;BME280;14654;48.898;8.308;2023-01-19T09:42:15;99538.88;;;2.48;100.00
15634;BME280;14654;48.898;8.308;2023-01-19T09:44:44;99541.66;;;2.68;100.00
15634;BME280;14654;48.898;8.308;2023-01-19T09:47:16;99537.66;;;2.92;99.36
15634;BME280;14654;48.898;8.308;2023-01-19T09:49:48;99530.13;;;3.11;99.02
15634;BME280;14654;48.898;8.308;2023-01-19T09:52:15;99536.22;;;3.22;97.90
15634;BME280;14654;48.898;8.308;2023-01-19T09:54:43;99537.94;;;3.23;97.94
15634;BME280;14654;48.898;8.308;2023-01-19T09:57:12;99543.94;;;3.27;98.14
15634;BME280;14654;48.898;8.308;2023-01-19T09:59:39;99533.69;;;3.27;98.07
15634;BME280;14654;48.898;8.308;2023-01-19T10:10:27;99535.97;;;2.94;98.38
15634;BME280;14654;48.898;8.308;2023-01-19T10:13:20;99543.53;;;2.85;98.80
15634;BME280;14654;48.898;8.308;2023-01-19T10:18:38;99550.22;;;2.72;99.24
15634;BME280;14654;48.898;8.308;2023-01-19T10:21:14;99553.53;;;2.63;99.27
15634;BME280;14654;48.898;8.308;2023-01-19T10:23:45;99545.75;;;2.54;99.38
15634;BME280;14654;48.898;8.308;2023-01-19T10:26:26;99557.56;;;2.46;100.00
15634;BME280;14654;48.898;8.308;2023-01-19T10:29:11;99560.00;;;2.36;100.00
15634;BME280;14654;48.898;8.308;2023-01-19T10:31:41;99559.94;;;2.30;100.00
15634;BME280;14654;48.898;8.308;2023-01-19T10:34:10;99558.16;;;2.26;100.00
15634;BME280;14654;48.898;8.308;2023-01-19T10:36:42;99558.16;;;2.26;100.00
15634;BME280;14654;48.898;8.308;2023-01-19T10:39:11;99564.22;;;2.31;100.00
15634;BME280;14654;48.898;8.308;2023-01-19T10:44:09;99564.31;;;2.40;100.00
15634;BME280;14654;48.898;8.308;2023-01-19T10:46:48;99566.03;;;2.43;100.00
15634;BME280;14654;48.898;8.308;2023-01-19T10:52:02;99565.19;;;2.42;100.00
15634;BME280;14654;48.898;8.308;2023-01-19T10:54:29;99573.72;;;2.44;100.00
15634;BME280;14654;48.898;8.308;2023-01-19T10:57:00;99569.53;;;2.50;100.00
15634;BME280;14654;48.898;8.308;2023-01-19T10:59:33;99572.16;;;2.56;100.00
15634;BME280;14654;48.898;8.308;2023-01-19T11:04:45;99573.19;;;2.70;100.00
15634;BME280;14654;48.898;8.308;2023-01-19T11:07:18;99567.31;;;2.78;99.71
15634;BME280;14654;48.898;8.308;2023-01-19T11:09:48;99577.59;;;2.84;99.58
15634;BME280;14654;48.898;8.308;2023-01-19T11:12:19;99574.19;;;2.85;99.14
15634;BME280;14654;48.898;8.308;2023-01-19T11:14:46;99582.69;;;2.82;99.21
15634;BME280;14654;48.898;8.308;2023-01-19T11:17:23;99580.97;;;2.80;99.28
15634;BME280;14654;48.898;8.308;2023-01-19T11:19:58;99582.59;;;2.74;98.81
15634;BME280;14654;48.898;8.308;2023-01-19T11:22:28;99581.72;;;2.71;99.11
15634;BME280;14654;48.898;8.308;2023-01-19T11:24:59;99585.94;;;2.69;99.11
15634;BME280;14654;48.898;8.308;2023-01-19T11:27:24;99578.28;;;2.69;99.20
15634;BME280;14654;48.898;8.308;2023-01-19T11:30:13;99578.34;;;2.73;99.29
15634;BME280;14654;48.898;8.308;2023-01-19T11:32:41;99574.97;;;2.78;99.04
15634;BME280;14654;48.898;8.308;2023-01-19T11:38:10;99569.19;;;2.96;98.77
15634;BME280;14654;48.898;8.308;2023-01-19T11:40:40;99561.66;;;3.07;98.53
15634;BME280;14654;48.898;8.308;2023-01-19T11:43:14;99553.22;;;3.17;98.27
15634;BME280;14654;48.898;8.308;2023-01-19T11:45:39;99566.94;;;3.25;97.87
15634;BME280;14654;48.898;8.308;2023-01-19T11:48:06;99561.84;;;3.28;97.80
15634;BME280;14654;48.898;8.308;2023-01-19T11:50:40;99551.63;;;3.31;97.38
15634;BME280;14654;48.898;8.308;2023-01-19T11:53:20;99559.28;;;3.25;96.72
15634;BME280;14654;48.898;8.308;2023-01-19T11:58:26;99556.69;;;3.24;97.54
15634;BME280;14654;48.898;8.308;2023-01-19T12:01:01;99550.72;;;3.26;97.57
15634;BME280;14654;48.898;8.308;2023-01-19T12:03:53;99555.06;;;3.33;97.62
15634;BME280;14654;48.898;8.308;2023-01-19T12:06:22;99552.53;;;3.37;97.52
15634;BME280;14654;48.898;8.308;2023-01-19T12:08:56;99554.25;;;3.41;97.15
15634;BME280;14654;48.898;8.308;2023-01-19T12:11:36;99556.81;;;3.38;96.45
15634;BME280;14654;48.898;8.308;2023-01-19T12:14:03;99557.66;;;3.37;96.76
15634;BME280;14654;48.898;8.308;2023-01-19T12:16:32;99552.56;;;3.43;97.11
15634;BME280;14654;48.898;8.308;2023-01-19T12:19:05;99552.56;;;3.43;97.00
15634;BME280;14654;48.898;8.308;2023-01-19T12:21:35;99545.78;;;3.45;96.92
15634;BME280;14654;48.898;8.308;2023-01-19T12:24:16;99545.81;;;3.46;96.86
15634;BME280;14654;48.898;8.308;2023-01-19T12:26:55;99549.25;;;3.51;96.83
15634;BME280;14654;48.898;8.308;2023-01-19T12:29:23;99552.69;;;3.57;96.67
15634;BME280;14654;48.898;8.308;2023-01-19T12:40:02;99547.47;;;3.41;96.90
15634;BME280;14654;48.898;8.308;2023-01-19T12:42:29;99545.72;;;3.37;97.07
15634;BME280;14654;48.898;8.308;2023-01-19T12:45:06;99544.81;;;3.30;97.08
15634;BME280;14654;48.898;8.308;2023-01-19T12:47:33;99545.59;;;3.22;96.92
15634;BME280;14654;48.898;8.308;2023-01-19T12:50:04;99539.56;;;3.13;97.36
15634;BME280;14654;48.898;8.308;2023-01-19T12:52:41;99543.78;;;3.11;97.86
15634;BME280;14654;48.898;8.308;2023-01-19T13:02:58;99548.84;;;3.03;98.83
15634;BME280;14654;48.898;8.308;2023-01-19T13:13:26;99555.66;;;3.06;99.32
15634;BME280;14654;48.898;8.308;2023-01-19T13:15:53;99552.34;;;3.15;99.27
15634;BME280;14654;48.898;8.308;2023-01-19T13:18:30;99551.59;;;3.28;99.14
15634;BME280;14654;48.898;8.308;2023-01-19T13:21:06;99555.16;;;3.44;98.71
15634;BME280;14654;48.898;8.308;2023-01-19T13:26:16;99545.09;;;3.66;98.29
15634;BME280;14654;48.898;8.308;2023-01-19T13:28:45;99546.00;;;3.76;97.95
15634;BME280;14654;48.898;8.308;2023-01-19T13:31:13;99552.88;;;3.86;97.73
15634;BME280;14654;48.898;8.308;2023-01-19T13:33:48;99546.13;;;3.93;97.37
15634;BME280;14654;48.898;8.308;2023-01-19T13:36:25;99549.56;;;3.98;97.15
15634;BME280;14654;48.898;8.308;2023-01-19T13:38:52;99541.84;;;3.95;96.87
15634;BME280;14654;48.898;8.308;2023-01-19T13:41:24;99545.22;;;3.85;96.92
15634;BME280;14654;48.898;8.308;2023-01-19T13:44:00;99543.44;;;3.71;96.99
15634;BME280;14654;48.898;8.308;2023-01-19T13:46:27;99543.31;;;3.57;97.18
15634;BME280;14654;48.898;8.308;2023-01-19T13:48:56;99544.94;;;3.46;97.65
15634;BME280;14654;48.898;8.308;2023-01-19T13:51:23;99540.66;;;3.45;97.67
15634;BME280;14654;48.898;8.308;2023-01-19T13:53:56;99542.41;;;3.47;97.73
15634;BME280;14654;48.898;8.308;2023-01-19T13:56:24;99544.19;;;3.58;97.70
15634;BME280;14654;48.898;8.308;2023-01-19T13:59:00;99535.75;;;3.73;96.82
15634;BME280;14654;48.898;8.308;2023-01-19T14:01:26;99542.63;;;3.81;96.57
15634;BME280;14654;48.898;8.308;2023-01-19T14:03:52;99539.19;;;3.79;96.17